Baton Rouge, LA

2:55 PM CDT on March 24, 2017 (GMT -0500)
Roseland Terrace | | Change Station
Active Advisory: Wind Advisory

Elev 79 ft 30.44 °N, 91.17 °W | Updated 16 seconds ago

Mostly Cloudy
Mostly Cloudy
80.4 °F
Feels Like 82 °F
N
1.8
Wind Variable Wind from SE
Gusts 2.5 mph

Today
High -- | Low -- °F
--% Chance of Precip.
Yesterday
High -- | Low -- °F
Precip. -- in
Pressure 30.15 in
Visibility 10.0 miles
Clouds Few 4600 ft
Mostly Cloudy 6000 ft
Heat Index 82 °F
Dew Point 63 °F
Humidity 56%
Rainfall 0.00 in
Snow Depth Not available.
7:03 AM 7:18 PM
Waning Crescent, 13% visible
METAR KBTR 241853Z 18017G24KT 10SM FEW046 BKN060 27/16 A3015 RMK AO2 PK WND 16028/1808 SLP209 T02670161
Pressure 30.15 in
Visibility 10.0 miles
Clouds Few 4600 ft
Mostly Cloudy 6000 ft
Heat Index 82 °F
Dew Point 63 °F
Humidity 56%
Rainfall 0.00 in
Snow Depth Not available.
7:03 AM 7:18 PM
Waning Crescent, 13% visible
METAR KBTR 241853Z 18017G24KT 10SM FEW046 BKN060 27/16 A3015 RMK AO2 PK WND 16028/1808 SLP209 T02670161

Get Your Daily Forecast Email!

Thanks for signing up!

Be on the lookout for a verification email in your inbox.

You'll start receiving severe weather alerts in your inbox..

×

10-Day Weather Forecast

Almanac

Astronomy

Mar. 24, 2017 Rise Set
Actual Time
Civil Twilight
Nautical Twilight
Astronomical Twilight
Moon
Length of Visible Light
Length of Day
Tomorrow will be .
, % of the Moon is Illuminated

Today's Extremes

State Highs State Lows

Community

WunderPhotos

Upload Photos

1,962,540 photos uploaded!

WunderBlog® & News

Nearby

Air Quality

  Air Quality AQ Index Pollutant
Not available.

Snow Depth

Station Depth Elevation

Earthquake Activity

City Distance Mag. Time & Date
Minimum magnitude displayed is 2.5.

Earthquake Activity

City Distance Mag. Time & Date
Minimum magnitude displayed is 2.5.

Coastal Water Temperatures

Place Temperature

Stations

Nearby Weather Stations

Station Location Temp. Windchill Dew Point Humidity Wind Precip. Elev Updated Type
                   

Watches & Warnings

Wind Advisory
Issued: 10:41 AM CDT Mar. 24, 2017 – National Weather Service

... Wind Advisory remains in effect until 7 PM CDT this evening...

* timing... through 7 PM

* winds... 25 to 30 mph with gusts up to 40 mph

* impacts... difficult driving conditions for high profile
vehicles especially on east-west roadways and on bridges and
overpasses. Loose lawn objects along with trash cans will be
blown around.

Precautionary/preparedness actions...

A Wind Advisory means that winds of 26 to 39 mph are expected.
Winds this strong can make driving difficult... especially for
high profile vehicles. Use extra caution.